sensor_id;sensor_type;location;lat;lon;timestamp;pressure;altitude;pressure_sealevel;temperature;humidity
41140;BME280;26881;48.784;9.192;2023-05-02T00:01:07;98685.34;;;10.93;98.13
41140;BME280;26881;48.784;9.192;2023-05-02T00:06:29;98676.41;;;10.67;99.09
41140;BME280;26881;48.784;9.192;2023-05-02T00:11:52;98684.97;;;10.54;100.00
41140;BME280;26881;48.784;9.192;2023-05-02T00:17:19;98676.09;;;10.57;100.00
41140;BME280;26881;48.784;9.192;2023-05-02T00:22:42;98666.34;;;10.61;99.25
41140;BME280;26881;48.784;9.192;2023-05-02T00:28:03;98674.50;;;10.85;97.04
41140;BME280;26881;48.784;9.192;2023-05-02T00:33:25;98674.03;;;10.78;96.67
41140;BME280;26881;48.784;9.192;2023-05-02T00:38:47;98676.38;;;10.83;96.31
41140;BME280;26881;48.784;9.192;2023-05-02T00:44:09;98674.28;;;10.73;96.74
41140;BME280;26881;48.784;9.192;2023-05-02T00:49:30;98672.63;;;10.72;96.68
41140;BME280;26881;48.784;9.192;2023-05-02T00:54:53;98682.97;;;10.44;97.97
41140;BME280;26881;48.784;9.192;2023-05-02T01:00:14;98677.66;;;10.45;98.63
41140;BME280;26881;48.784;9.192;2023-05-02T01:05:52;98677.34;;;10.36;98.85
41140;BME280;26881;48.784;9.192;2023-05-02T01:11:34;98683.16;;;10.41;99.30
41140;BME280;26881;48.784;9.192;2023-05-02T01:17:00;98682.59;;;10.66;97.33
41140;BME280;26881;48.784;9.192;2023-05-02T01:22:28;98689.03;;;10.74;96.07
41140;BME280;26881;48.784;9.192;2023-05-02T01:28:09;98686.75;;;10.84;95.36
41140;BME280;26881;48.784;9.192;2023-05-02T01:33:37;98691.66;;;11.05;93.40
41140;BME280;26881;48.784;9.192;2023-05-02T01:39:01;98689.91;;;11.05;92.06
41140;BME280;26881;48.784;9.192;2023-05-02T01:44:23;98689.88;;;10.91;92.54
41140;BME280;26881;48.784;9.192;2023-05-02T01:49:45;98693.63;;;10.71;94.57
41140;BME280;26881;48.784;9.192;2023-05-02T01:55:10;98701.03;;;10.79;94.59
41140;BME280;26881;48.784;9.192;2023-05-02T02:00:33;98699.25;;;10.79;93.79
41140;BME280;26881;48.784;9.192;2023-05-02T02:05:57;98700.75;;;10.53;95.12
41140;BME280;26881;48.784;9.192;2023-05-02T02:11:40;98704.81;;;10.43;95.92
41140;BME280;26881;48.784;9.192;2023-05-02T02:17:15;98711.56;;;10.47;95.42
41140;BME280;26881;48.784;9.192;2023-05-02T02:22:42;98720.91;;;10.19;95.82
41140;BME280;26881;48.784;9.192;2023-05-02T02:28:06;98727.56;;;10.25;96.28
41140;BME280;26881;48.784;9.192;2023-05-02T02:33:29;98729.50;;;10.05;96.94
41140;BME280;26881;48.784;9.192;2023-05-02T02:39:10;98738.34;;;10.03;97.19
41140;BME280;26881;48.784;9.192;2023-05-02T02:44:42;98745.84;;;10.09;97.96
41140;BME280;26881;48.784;9.192;2023-05-02T02:50:15;98751.38;;;10.36;95.21
41140;BME280;26881;48.784;9.192;2023-05-02T02:55:56;98755.84;;;10.34;95.00
41140;BME280;26881;48.784;9.192;2023-05-02T03:01:21;98766.03;;;10.39;94.72
41140;BME280;26881;48.784;9.192;2023-05-02T03:06:45;98775.56;;;10.24;94.71
41140;BME280;26881;48.784;9.192;2023-05-02T03:12:06;98791.13;;;10.25;95.49
41140;BME280;26881;48.784;9.192;2023-05-02T03:17:28;98792.13;;;9.91;98.07
41140;BME280;26881;48.784;9.192;2023-05-02T03:22:50;98798.00;;;9.95;98.97
41140;BME280;26881;48.784;9.192;2023-05-02T03:28:12;98804.09;;;10.11;96.67
41140;BME280;26881;48.784;9.192;2023-05-02T03:33:34;98804.09;;;10.11;97.24
41140;BME280;26881;48.784;9.192;2023-05-02T03:38:56;98805.06;;;10.26;96.70
41140;BME280;26881;48.784;9.192;2023-05-02T03:44:18;98817.91;;;10.46;95.71
41140;BME280;26881;48.784;9.192;2023-05-02T03:49:40;98822.50;;;10.59;94.41
41140;BME280;26881;48.784;9.192;2023-05-02T03:55:02;98831.59;;;10.67;93.08
41140;BME280;26881;48.784;9.192;2023-05-02T04:00:24;98839.78;;;10.61;95.47
41140;BME280;26881;48.784;9.192;2023-05-02T04:05:46;98837.91;;;10.47;96.79
41140;BME280;26881;48.784;9.192;2023-05-02T04:11:08;98843.41;;;10.25;98.07
41140;BME280;26881;48.784;9.192;2023-05-02T04:16:30;98848.94;;;10.37;97.47
41140;BME280;26881;48.784;9.192;2023-05-02T04:21:52;98855.44;;;10.29;98.02
41140;BME280;26881;48.784;9.192;2023-05-02T04:27:13;98853.66;;;10.30;97.77
41140;BME280;26881;48.784;9.192;2023-05-02T04:32:36;98852.53;;;10.51;97.16
41140;BME280;26881;48.784;9.192;2023-05-02T04:37:58;98862.75;;;10.56;96.88
41140;BME280;26881;48.784;9.192;2023-05-02T04:43:20;98865.94;;;10.77;95.12
41140;BME280;26881;48.784;9.192;2023-05-02T04:48:45;98861.38;;;10.81;95.12
41140;BME280;26881;48.784;9.192;2023-05-02T04:54:06;98862.72;;;10.88;95.12
41140;BME280;26881;48.784;9.192;2023-05-02T04:59:28;98878.34;;;10.89;94.94
41140;BME280;26881;48.784;9.192;2023-05-02T05:04:51;98866.59;;;10.81;95.12
41140;BME280;26881;48.784;9.192;2023-05-02T05:10:12;98880.13;;;10.89;94.15
41140;BME280;26881;48.784;9.192;2023-05-02T05:15:34;98887.22;;;10.87;93.32
41140;BME280;26881;48.784;9.192;2023-05-02T05:20:56;98902.47;;;11.10;92.28
41140;BME280;26881;48.784;9.192;2023-05-02T05:26:18;98920.09;;;11.23;93.42
41140;BME280;26881;48.784;9.192;2023-05-02T05:31:39;98920.88;;;11.25;92.94
41140;BME280;26881;48.784;9.192;2023-05-02T05:37:02;98934.47;;;11.31;92.87
41140;BME280;26881;48.784;9.192;2023-05-02T05:42:24;98947.88;;;11.25;93.32
41140;BME280;26881;48.784;9.192;2023-05-02T05:47:46;98944.50;;;11.39;92.20
41140;BME280;26881;48.784;9.192;2023-05-02T05:53:08;98948.63;;;11.43;90.00
41140;BME280;26881;48.784;9.192;2023-05-02T05:58:30;98950.16;;;11.47;91.18
41140;BME280;26881;48.784;9.192;2023-05-02T06:03:51;98953.19;;;11.39;88.04
41140;BME280;26881;48.784;9.192;2023-05-02T06:09:13;98967.72;;;11.61;88.54
41140;BME280;26881;48.784;9.192;2023-05-02T06:14:35;98972.00;;;11.62;88.73
41140;BME280;26881;48.784;9.192;2023-05-02T06:19:57;98971.56;;;11.70;87.36
41140;BME280;26881;48.784;9.192;2023-05-02T06:25:19;98985.28;;;11.75;86.54
41140;BME280;26881;48.784;9.192;2023-05-02T06:30:41;98997.09;;;11.82;84.72
41140;BME280;26881;48.784;9.192;2023-05-02T06:36:02;98992.69;;;11.82;84.42
41140;BME280;26881;48.784;9.192;2023-05-02T06:41:24;99002.69;;;11.92;83.42
41140;BME280;26881;48.784;9.192;2023-05-02T06:46:46;99001.38;;;11.99;83.09
41140;BME280;26881;48.784;9.192;2023-05-02T06:52:08;99006.84;;;12.10;81.52
41140;BME280;26881;48.784;9.192;2023-05-02T06:57:29;99011.59;;;12.04;82.27
41140;BME280;26881;48.784;9.192;2023-05-02T07:02:51;99019.84;;;12.12;82.65
41140;BME280;26881;48.784;9.192;2023-05-02T07:08:13;99028.47;;;12.14;83.62
41140;BME280;26881;48.784;9.192;2023-05-02T07:13:35;99043.44;;;12.12;82.63
41140;BME280;26881;48.784;9.192;2023-05-02T07:18:56;99047.34;;;12.05;82.27
41140;BME280;26881;48.784;9.192;2023-05-02T07:24:18;99049.41;;;11.99;82.17
41140;BME280;26881;48.784;9.192;2023-05-02T07:29:40;99051.50;;;12.09;83.67
41140;BME280;26881;48.784;9.192;2023-05-02T07:35:03;99054.81;;;12.12;82.80
41140;BME280;26881;48.784;9.192;2023-05-02T07:40:25;99058.34;;;12.11;83.14
41140;BME280;26881;48.784;9.192;2023-05-02T07:45:46;99052.91;;;12.14;81.72
41140;BME280;26881;48.784;9.192;2023-05-02T07:51:09;99058.16;;;12.14;82.90
41140;BME280;26881;48.784;9.192;2023-05-02T07:56:31;99065.94;;;12.16;83.22
41140;BME280;26881;48.784;9.192;2023-05-02T08:01:53;99070.38;;;12.30;83.88
41140;BME280;26881;48.784;9.192;2023-05-02T08:07:15;99083.06;;;12.37;83.77
41140;BME280;26881;48.784;9.192;2023-05-02T08:12:41;99091.19;;;12.33;82.79
41140;BME280;26881;48.784;9.192;2023-05-02T08:18:03;99087.19;;;12.41;83.04
41140;BME280;26881;48.784;9.192;2023-05-02T08:23:25;99091.69;;;12.39;82.11
41140;BME280;26881;48.784;9.192;2023-05-02T08:28:46;99097.75;;;12.40;83.22
41140;BME280;26881;48.784;9.192;2023-05-02T08:34:08;99099.13;;;12.47;82.57
41140;BME280;26881;48.784;9.192;2023-05-02T08:39:31;99105.59;;;12.56;82.44
41140;BME280;26881;48.784;9.192;2023-05-02T08:44:53;99103.91;;;12.55;81.99
41140;BME280;26881;48.784;9.192;2023-05-02T08:50:16;99101.88;;;12.74;81.76
41140;BME280;26881;48.784;9.192;2023-05-02T08:55:39;99103.13;;;12.83;81.29
41140;BME280;26881;48.784;9.192;2023-05-02T09:01:12;99099.94;;;12.78;80.51
41140;BME280;26881;48.784;9.192;2023-05-02T09:06:35;99106.03;;;12.93;78.95
41140;BME280;26881;48.784;9.192;2023-05-02T09:11:57;99112.72;;;12.98;77.38
41140;BME280;26881;48.784;9.192;2023-05-02T09:17:19;99118.81;;;12.99;78.34
41140;BME280;26881;48.784;9.192;2023-05-02T09:22:50;99121.72;;;13.08;79.04
41140;BME280;26881;48.784;9.192;2023-05-02T09:28:11;99119.94;;;13.23;76.55
41140;BME280;26881;48.784;9.192;2023-05-02T09:33:33;99126.22;;;13.21;77.11
41140;BME280;26881;48.784;9.192;2023-05-02T09:39:07;99116.00;;;13.31;77.32
41140;BME280;26881;48.784;9.192;2023-05-02T09:44:37;99115.00;;;13.47;75.69
41140;BME280;26881;48.784;9.192;2023-05-02T09:49:59;99104.53;;;13.60;75.36
41140;BME280;26881;48.784;9.192;2023-05-02T09:55:20;99099.25;;;13.75;76.08
41140;BME280;26881;48.784;9.192;2023-05-02T10:00:43;99111.94;;;13.82;74.60
41140;BME280;26881;48.784;9.192;2023-05-02T10:06:07;99115.19;;;13.86;74.70
41140;BME280;26881;48.784;9.192;2023-05-02T10:11:30;99129.53;;;13.95;74.93
41140;BME280;26881;48.784;9.192;2023-05-02T10:17:26;99124.38;;;13.93;73.34
41140;BME280;26881;48.784;9.192;2023-05-02T10:22:49;99126.66;;;13.85;74.14
41140;BME280;26881;48.784;9.192;2023-05-02T10:28:12;99119.31;;;13.90;71.32
41140;BME280;26881;48.784;9.192;2023-05-02T10:33:35;99119.28;;;14.04;69.91
41140;BME280;26881;48.784;9.192;2023-05-02T10:38:57;99107.84;;;14.18;68.40
41140;BME280;26881;48.784;9.192;2023-05-02T10:44:33;99109.78;;;14.29;68.78
41140;BME280;26881;48.784;9.192;2023-05-02T10:50:00;99101.81;;;14.43;67.55
41140;BME280;26881;48.784;9.192;2023-05-02T10:55:22;99098.03;;;14.47;67.91
41140;BME280;26881;48.784;9.192;2023-05-02T11:00:44;99091.31;;;14.43;65.56
41140;BME280;26881;48.784;9.192;2023-05-02T11:06:06;99093.41;;;14.51;67.09
41140;BME280;26881;48.784;9.192;2023-05-02T11:11:41;99089.16;;;14.63;67.05
41140;BME280;26881;48.784;9.192;2023-05-02T11:17:06;99088.22;;;14.77;64.23
41140;BME280;26881;48.784;9.192;2023-05-02T11:22:31;99087.91;;;14.81;62.88
41140;BME280;26881;48.784;9.192;2023-05-02T11:27:53;99093.56;;;14.75;63.32
41140;BME280;26881;48.784;9.192;2023-05-02T11:33:16;99096.84;;;14.91;64.17
41140;BME280;26881;48.784;9.192;2023-05-02T11:38:38;99085.38;;;15.18;62.88
41140;BME280;26881;48.784;9.192;2023-05-02T11:44:03;99075.84;;;15.41;61.75
41140;BME280;26881;48.784;9.192;2023-05-02T11:49:25;99072.34;;;15.41;59.28
41140;BME280;26881;48.784;9.192;2023-05-02T11:54:48;99076.34;;;15.46;60.32
41140;BME280;26881;48.784;9.192;2023-05-02T12:00:11;99079.22;;;15.30;61.64
41140;BME280;26881;48.784;9.192;2023-05-02T12:05:33;99091.88;;;15.25;63.36
41140;BME280;26881;48.784;9.192;2023-05-02T12:10:55;99077.94;;;15.36;59.42
41140;BME280;26881;48.784;9.192;2023-05-02T12:16:18;99070.09;;;15.60;57.13
41140;BME280;26881;48.784;9.192;2023-05-02T12:21:40;99074.81;;;15.80;56.21
41140;BME280;26881;48.784;9.192;2023-05-02T12:27:12;99079.63;;;15.87;56.59
41140;BME280;26881;48.784;9.192;2023-05-02T12:32:34;99093.78;;;15.86;58.36
41140;BME280;26881;48.784;9.192;2023-05-02T12:38:08;99094.97;;;15.69;59.73
41140;BME280;26881;48.784;9.192;2023-05-02T12:43:48;99095.22;;;15.53;60.32
41140;BME280;26881;48.784;9.192;2023-05-02T12:49:10;99094.81;;;15.46;60.88
41140;BME280;26881;48.784;9.192;2023-05-02T12:54:35;99103.22;;;15.51;60.80
41140;BME280;26881;48.784;9.192;2023-05-02T12:59:56;99107.44;;;15.54;57.83
41140;BME280;26881;48.784;9.192;2023-05-02T13:05:19;99094.16;;;15.55;58.26
41140;BME280;26881;48.784;9.192;2023-05-02T13:10:41;99101.59;;;15.62;57.49
41140;BME280;26881;48.784;9.192;2023-05-02T13:16:03;99101.50;;;15.63;58.00
41140;BME280;26881;48.784;9.192;2023-05-02T13:21:25;99102.84;;;15.82;57.00
41140;BME280;26881;48.784;9.192;2023-05-02T13:26:47;99099.63;;;16.02;56.70
41140;BME280;26881;48.784;9.192;2023-05-02T13:32:09;99089.47;;;16.09;53.16
41140;BME280;26881;48.784;9.192;2023-05-02T13:37:30;99090.06;;;16.12;52.35
41140;BME280;26881;48.784;9.192;2023-05-02T13:42:52;99088.00;;;16.05;52.75
41140;BME280;26881;48.784;9.192;2023-05-02T13:48:14;99092.03;;;15.97;53.93
41140;BME280;26881;48.784;9.192;2023-05-02T13:53:37;99090.88;;;16.01;53.48
41140;BME280;26881;48.784;9.192;2023-05-02T13:58:58;99090.47;;;15.95;52.32
41140;BME280;26881;48.784;9.192;2023-05-02T14:04:20;99084.00;;;15.99;53.25
41140;BME280;26881;48.784;9.192;2023-05-02T14:09:44;99086.19;;;16.05;53.41
41140;BME280;26881;48.784;9.192;2023-05-02T14:15:06;99075.31;;;16.10;54.42
41140;BME280;26881;48.784;9.192;2023-05-02T14:20:28;99083.88;;;16.25;53.08
41140;BME280;26881;48.784;9.192;2023-05-02T14:25:50;99084.34;;;16.18;49.83
41140;BME280;26881;48.784;9.192;2023-05-02T14:31:12;99088.59;;;16.08;50.82
41140;BME280;26881;48.784;9.192;2023-05-02T14:36:34;99083.84;;;16.13;51.85
41140;BME280;26881;48.784;9.192;2023-05-02T14:41:56;99092.19;;;16.31;51.08
41140;BME280;26881;48.784;9.192;2023-05-02T14:47:18;99078.28;;;16.40;51.92
41140;BME280;26881;48.784;9.192;2023-05-02T14:52:39;99086.88;;;16.55;51.20
41140;BME280;26881;48.784;9.192;2023-05-02T14:58:01;99092.38;;;16.52;51.72
41140;BME280;26881;48.784;9.192;2023-05-02T15:03:23;99090.66;;;16.40;51.92
41140;BME280;26881;48.784;9.192;2023-05-02T15:08:47;99085.31;;;16.29;50.29
41140;BME280;26881;48.784;9.192;2023-05-02T15:14:08;99097.84;;;16.38;51.53
41140;BME280;26881;48.784;9.192;2023-05-02T15:19:30;99096.66;;;16.42;52.53
41140;BME280;26881;48.784;9.192;2023-05-02T15:24:52;99100.63;;;16.48;51.24
41140;BME280;26881;48.784;9.192;2023-05-02T15:30:14;99103.16;;;16.49;49.88
41140;BME280;26881;48.784;9.192;2023-05-02T15:35:38;99115.16;;;16.42;51.21
41140;BME280;26881;48.784;9.192;2023-05-02T15:41:00;99108.06;;;16.42;50.20
41140;BME280;26881;48.784;9.192;2023-05-02T15:46:22;99106.16;;;16.44;49.38
41140;BME280;26881;48.784;9.192;2023-05-02T15:51:44;99112.50;;;16.42;49.33
41140;BME280;26881;48.784;9.192;2023-05-02T15:57:05;99124.03;;;16.41;49.06
41140;BME280;26881;48.784;9.192;2023-05-02T16:02:28;99103.13;;;16.38;47.62
41140;BME280;26881;48.784;9.192;2023-05-02T16:07:49;99110.94;;;16.39;48.46
41140;BME280;26881;48.784;9.192;2023-05-02T16:13:11;99116.31;;;16.38;48.49
41140;BME280;26881;48.784;9.192;2023-05-02T16:18:33;99118.22;;;16.36;47.99
41140;BME280;26881;48.784;9.192;2023-05-02T16:23:55;99116.13;;;16.41;47.85
41140;BME280;26881;48.784;9.192;2023-05-02T16:29:17;99119.47;;;16.43;47.95
41140;BME280;26881;48.784;9.192;2023-05-02T16:34:38;99116.59;;;16.46;48.37
41140;BME280;26881;48.784;9.192;2023-05-02T16:40:01;99114.69;;;16.48;47.35
41140;BME280;26881;48.784;9.192;2023-05-02T16:45:24;99114.69;;;16.48;44.00
41140;BME280;26881;48.784;9.192;2023-05-02T16:50:45;99121.75;;;16.48;44.28
41140;BME280;26881;48.784;9.192;2023-05-02T16:56:07;99115.75;;;16.46;43.72
41140;BME280;26881;48.784;9.192;2023-05-02T17:01:29;99120.44;;;16.42;42.01
41140;BME280;26881;48.784;9.192;2023-05-02T17:06:53;99131.97;;;16.41;42.99
41140;BME280;26881;48.784;9.192;2023-05-02T17:12:17;99131.44;;;16.36;41.01
41140;BME280;26881;48.784;9.192;2023-05-02T17:17:43;99126.28;;;16.34;42.79
41140;BME280;26881;48.784;9.192;2023-05-02T17:23:05;99134.53;;;16.30;43.95
41140;BME280;26881;48.784;9.192;2023-05-02T17:28:26;99135.38;;;16.30;42.23
41140;BME280;26881;48.784;9.192;2023-05-02T17:33:48;99135.47;;;16.29;43.21
41140;BME280;26881;48.784;9.192;2023-05-02T17:39:10;99143.72;;;16.24;43.70
41140;BME280;26881;48.784;9.192;2023-05-02T17:44:33;99147.91;;;16.15;46.01
41140;BME280;26881;48.784;9.192;2023-05-02T17:49:58;99151.50;;;16.14;44.79
41140;BME280;26881;48.784;9.192;2023-05-02T17:55:23;99164.78;;;16.13;45.49
41140;BME280;26881;48.784;9.192;2023-05-02T18:00:45;99170.38;;;16.08;46.47
41140;BME280;26881;48.784;9.192;2023-05-02T18:06:07;99178.13;;;15.98;47.18
41140;BME280;26881;48.784;9.192;2023-05-02T18:11:29;99181.31;;;15.91;47.21
41140;BME280;26881;48.784;9.192;2023-05-02T18:16:52;99190.97;;;15.79;47.87
41140;BME280;26881;48.784;9.192;2023-05-02T18:22:14;99200.53;;;15.67;48.73
41140;BME280;26881;48.784;9.192;2023-05-02T18:27:39;99207.81;;;15.64;49.02
41140;BME280;26881;48.784;9.192;2023-05-02T18:33:01;99224.16;;;15.56;49.19
41140;BME280;26881;48.784;9.192;2023-05-02T18:38:23;99223.53;;;15.39;51.37
41140;BME280;26881;48.784;9.192;2023-05-02T18:43:45;99227.31;;;15.35;51.02
41140;BME280;26881;48.784;9.192;2023-05-02T18:49:07;99236.50;;;15.30;51.55
41140;BME280;26881;48.784;9.192;2023-05-02T18:54:29;99240.81;;;15.18;53.40
41140;BME280;26881;48.784;9.192;2023-05-02T18:59:51;99243.84;;;15.12;53.33
41140;BME280;26881;48.784;9.192;2023-05-02T19:05:13;99249.53;;;15.06;54.93
41140;BME280;26881;48.784;9.192;2023-05-02T19:10:35;99257.03;;;15.12;53.85
41140;BME280;26881;48.784;9.192;2023-05-02T19:15:57;99260.94;;;15.06;54.35
41140;BME280;26881;48.784;9.192;2023-05-02T19:21:19;99264.63;;;15.04;54.68
41140;BME280;26881;48.784;9.192;2023-05-02T19:26:42;99268.38;;;15.00;55.27
41140;BME280;26881;48.784;9.192;2023-05-02T19:32:04;99285.44;;;14.94;55.41
41140;BME280;26881;48.784;9.192;2023-05-02T19:37:26;99285.00;;;14.87;55.69
41140;BME280;26881;48.784;9.192;2023-05-02T19:42:47;99300.69;;;14.89;55.85
41140;BME280;26881;48.784;9.192;2023-05-02T19:48:09;99307.31;;;14.82;56.16
41140;BME280;26881;48.784;9.192;2023-05-02T19:53:34;99315.63;;;14.75;56.04
41140;BME280;26881;48.784;9.192;2023-05-02T19:58:56;99314.22;;;14.70;57.14
41140;BME280;26881;48.784;9.192;2023-05-02T20:04:19;99320.91;;;14.61;57.00
41140;BME280;26881;48.784;9.192;2023-05-02T20:09:41;99330.88;;;14.56;56.81
41140;BME280;26881;48.784;9.192;2023-05-02T20:15:03;99335.66;;;14.49;56.80
41140;BME280;26881;48.784;9.192;2023-05-02T20:20:25;99348.94;;;14.48;56.64
41140;BME280;26881;48.784;9.192;2023-05-02T20:25:47;99353.53;;;14.44;56.96
41140;BME280;26881;48.784;9.192;2023-05-02T20:31:08;99359.34;;;14.35;57.33
41140;BME280;26881;48.784;9.192;2023-05-02T20:36:30;99360.94;;;14.38;57.64
41140;BME280;26881;48.784;9.192;2023-05-02T20:41:53;99359.56;;;14.32;57.75
41140;BME280;26881;48.784;9.192;2023-05-02T20:47:18;99370.44;;;14.11;59.69
41140;BME280;26881;48.784;9.192;2023-05-02T20:52:40;99363.88;;;14.04;60.27
41140;BME280;26881;48.784;9.192;2023-05-02T20:58:02;99359.19;;;14.09;59.16
41140;BME280;26881;48.784;9.192;2023-05-02T21:03:25;99360.97;;;13.95;60.76
41140;BME280;26881;48.784;9.192;2023-05-02T21:08:47;99357.94;;;13.86;61.54
41140;BME280;26881;48.784;9.192;2023-05-02T21:14:09;99370.03;;;13.75;61.94
41140;BME280;26881;48.784;9.192;2023-05-02T21:19:32;99364.75;;;13.60;62.66
41140;BME280;26881;48.784;9.192;2023-05-02T21:24:54;99366.56;;;13.74;61.27
41140;BME280;26881;48.784;9.192;2023-05-02T21:30:16;99371.28;;;13.53;62.00
41140;BME280;26881;48.784;9.192;2023-05-02T21:35:38;99377.13;;;13.58;62.37
41140;BME280;26881;48.784;9.192;2023-05-02T21:41:01;99371.09;;;13.56;62.58
41140;BME280;26881;48.784;9.192;2023-05-02T21:46:23;99371.09;;;13.56;61.68
41140;BME280;26881;48.784;9.192;2023-05-02T21:51:45;99364.81;;;13.59;61.63
41140;BME280;26881;48.784;9.192;2023-05-02T21:57:07;99371.28;;;13.53;61.25
41140;BME280;26881;48.784;9.192;2023-05-02T22:02:29;99369.97;;;13.46;62.00
41140;BME280;26881;48.784;9.192;2023-05-02T22:07:51;99369.81;;;13.33;62.14
41140;BME280;26881;48.784;9.192;2023-05-02T22:13:14;99372.53;;;13.32;62.09
41140;BME280;26881;48.784;9.192;2023-05-02T22:18:36;99379.81;;;13.26;62.49
41140;BME280;26881;48.784;9.192;2023-05-02T22:23:58;99379.59;;;12.99;63.83
41140;BME280;26881;48.784;9.192;2023-05-02T22:29:20;99381.53;;;12.96;63.97
41140;BME280;26881;48.784;9.192;2023-05-02T22:34:42;99382.03;;;12.86;64.73
41140;BME280;26881;48.784;9.192;2023-05-02T22:40:04;99388.06;;;12.89;64.24
41140;BME280;26881;48.784;9.192;2023-05-02T22:45:28;99386.81;;;12.80;64.12
41140;BME280;26881;48.784;9.192;2023-05-02T22:50:50;99391.53;;;12.73;65.25
41140;BME280;26881;48.784;9.192;2023-05-02T22:56:12;99390.41;;;12.77;64.68
41140;BME280;26881;48.784;9.192;2023-05-02T23:01:33;99378.81;;;12.65;65.00
41140;BME280;26881;48.784;9.192;2023-05-02T23:06:55;99391.53;;;12.57;65.83
41140;BME280;26881;48.784;9.192;2023-05-02T23:12:17;99397.03;;;12.53;66.15
41140;BME280;26881;48.784;9.192;2023-05-02T23:17:39;99400.06;;;12.45;66.93
41140;BME280;26881;48.784;9.192;2023-05-02T23:23:02;99395.66;;;12.46;66.77
41140;BME280;26881;48.784;9.192;2023-05-02T23:28:24;99393.94;;;12.44;67.07
41140;BME280;26881;48.784;9.192;2023-05-02T23:33:46;99392.50;;;12.39;67.05
41140;BME280;26881;48.784;9.192;2023-05-02T23:39:08;99401.47;;;12.35;67.66
41140;BME280;26881;48.784;9.192;2023-05-02T23:44:30;99401.56;;;12.33;67.71
41140;BME280;26881;48.784;9.192;2023-05-02T23:49:52;99409.81;;;11.92;70.99
41140;BME280;26881;48.784;9.192;2023-05-02T23:55:14;99399.28;;;12.10;69.95
